Time;durP1;ratioP1;P1;durP2;ratioP2;P2;SDS_P1;SDS_P2;PMS_P1;PMS_P2;Temp;Humidity;BMP_temperature;BMP_pressure;BME280_temperature;BME280_humidity;BME280_pressure;Samples;Min_cycle;Max_cycle;Signal;HPM_P1;HPM_P2
2021/12/07 00:26:17;;;;;;;;;;;;;;;;;;;;;
2021/12/07 01:05:13;;;;;;;;;;;;;;;;;;;;;
2021/12/07 03:31:31;;;;;;;;;;;;;;;;;;;;;
2021/12/07 03:41:53;;;;;;;;;;;;;;;;;;;;;
2021/12/07 03:48:42;;;;;;;;;;;;;;;;;;;;;
2021/12/07 03:54:39;;;;;;;19.90;8.43;;;;;;;;;;5060866;28;20045;-83
2021/12/07 04:06:52;;;;;;;17.98;7.88;;;;;;;;;;4962319;28;20050;-83
2021/12/07 04:13:35;;;;;;;22.17;8.02;;;;;;;;;;4946851;29;20604;-81
2021/12/07 04:37:30;;;;;;;12.35;5.30;;;;;;;;;;5000690;28;20053;-82
2021/12/07 04:44:25;;;;;;;18.77;8.20;;;;;;;;;;4938679;29;20116;-81
2021/12/07 08:26:05;;;;;;;;;;;;;;;;;;;;;
2021/12/07 08:32:23;;;;;;;23.27;9.93;;;;;;;;;;5060387;28;20098;-79
2021/12/07 08:34:49;;;;;;;18.50;7.97;;;;;;;;;;5057275;28;20028;-77
2021/12/07 08:37:15;;;;;;;18.02;9.23;;;;;;;;;;5055347;28;20013;-76
2021/12/07 08:39:40;;;;;;;22.52;9.10;;;;;;;;;;5055850;28;20021;-76
2021/12/07 08:42:08;;;;;;;19.65;9.48;;;;;;;;;;5056075;28;20029;-78
2021/12/07 08:44:35;;;;;;;24.08;10.35;;;;;;;;;;5056338;28;20095;-78
2021/12/07 08:47:00;;;;;;;19.85;9.10;;;;;;;;;;5055709;28;20028;-77
2021/12/07 08:49:29;;;;;;;25.63;10.02;;;;;;;;;;5055947;28;20028;-77
2021/12/07 08:51:54;;;;;;;16.08;8.15;;;;;;;;;;5056669;28;20036;-78
2021/12/07 08:59:37;;;;;;;15.90;6.60;;;;;;;;;;5057694;28;20028;-78
2021/12/07 09:00:07;;;;;;;21.85;9.35;;;;;;;;;;5058517;28;20648;-79
2021/12/07 09:02:33;;;;;;;19.52;8.95;;;;;;;;;;5059157;28;20021;-78
2021/12/07 09:04:59;;;;;;;22.98;9.93;;;;;;;;;;5060000;28;20035;-78
2021/12/07 09:07:25;;;;;;;21.33;9.68;;;;;;;;;;5059747;28;20025;-79
2021/12/07 09:09:51;;;;;;;20.52;9.73;;;;;;;;;;5058075;28;20074;-78
2021/12/07 09:12:18;;;;;;;23.15;9.88;;;;;;;;;;5056468;28;20166;-78
2021/12/07 09:14:44;;;;;;;22.98;9.85;;;;;;;;;;5055393;28;20033;-78
2021/12/07 09:17:11;;;;;;;24.60;11.07;;;;;;;;;;5056471;28;20021;-82
2021/12/07 09:19:38;;;;;;;29.02;11.45;;;;;;;;;;5039436;28;20021;-80
2021/12/07 09:22:05;;;;;;;24.27;10.30;;;;;;;;;;5039206;28;20060;-81
2021/12/07 09:24:34;;;;;;;24.55;11.88;;;;;;;;;;5057723;28;20025;-82
2021/12/07 09:27:02;;;;;;;25.20;10.43;;;;;;;;;;5057297;28;20024;-82
2021/12/07 09:29:27;;;;;;;20.30;9.20;;;;;;;;;;5039042;28;20033;-81
2021/12/07 09:31:53;;;;;;;23.40;10.38;;;;;;;;;;5039066;28;20393;-81
2021/12/07 09:34:19;;;;;;;25.38;11.23;;;;;;;;;;5038895;28;20032;-82
2021/12/07 09:36:45;;;;;;;19.20;9.75;;;;;;;;;;5057393;28;20040;-82
2021/12/07 09:39:13;;;;;;;21.17;9.95;;;;;;;;;;5038859;28;20021;-81
2021/12/07 09:41:39;;;;;;;21.50;9.35;;;;;;;;;;5057172;28;20025;-82
2021/12/07 09:44:06;;;;;;;19.80;9.70;;;;;;;;;;5038646;28;20032;-81
2021/12/07 09:46:31;;;;;;;24.00;10.77;;;;;;;;;;5056969;28;20032;-82
2021/12/07 09:48:56;;;;;;;20.63;9.90;;;;;;;;;;5058577;28;20033;-80
2021/12/07 09:51:24;;;;;;;24.67;10.75;;;;;;;;;;5061223;28;20035;-80
2021/12/07 09:53:52;;;;;;;24.55;10.43;;;;;;;;;;5061630;28;20033;-81
2021/12/07 09:56:18;;;;;;;22.70;10.57;;;;;;;;;;5057217;28;20044;-81
2021/12/07 09:58:45;;;;;;;22.77;10.60;;;;;;;;;;5039535;28;20048;-82
2021/12/07 10:01:10;;;;;;;26.27;10.93;;;;;;;;;;5056748;28;20553;-81
2021/12/07 10:03:37;;;;;;;23.58;10.80;;;;;;;;;;5057389;28;20056;-80
2021/12/07 10:06:03;;;;;;;18.60;9.88;;;;;;;;;;5056437;28;20482;-82
2021/12/07 10:08:28;;;;;;;23.73;11.18;;;;;;;;;;5038822;28;20029;-81
2021/12/07 10:10:55;;;;;;;25.83;11.23;;;;;;;;;;5056645;28;20056;-81
2021/12/07 10:13:26;;;;;;;22.20;9.68;;;;;;;;;;5056652;28;20016;-80
2021/12/07 10:15:53;;;;;;;21.60;10.57;;;;;;;;;;5057053;28;20024;-81
2021/12/07 10:18:21;;;;;;;26.77;9.90;;;;;;;;;;5038341;28;20119;-81
2021/12/07 10:20:53;;;;;;;23.25;10.90;;;;;;;;;;5038682;28;20115;-82
2021/12/07 10:23:19;;;;;;;26.17;11.32;;;;;;;;;;5056544;28;20025;-80
2021/12/07 10:26:05;;;;;;;22.08;10.60;;;;;;;;;;5038218;28;20052;-81
2021/12/07 10:28:42;;;;;;;19.30;8.63;;;;;;;;;;5056106;28;20493;-81
2021/12/07 10:31:19;;;;;;;28.10;10.60;;;;;;;;;;5038155;28;20421;-81
2021/12/07 10:34:06;;;;;;;20.98;10.65;;;;;;;;;;5038011;28;20098;-80
2021/12/07 10:37:05;;;;;;;25.60;10.82;;;;;;;;;;5037820;28;20021;-82
2021/12/07 10:39:39;;;;;;;23.35;10.63;;;;;;;;;;5012074;28;20124;-80
2021/12/07 10:42:09;;;;;;;;;;;;;;;;;;5038552;28;20025;-81
2021/12/07 10:44:38;;;;;;;23.40;9.93;;;;;;;;;;5061072;28;19909;-82
2021/12/07 10:47:08;;;;;;;21.23;9.80;;;;;;;;;;5038929;28;20470;-82
2021/12/07 10:49:46;;;;;;;27.70;10.68;;;;;;;;;;5055883;28;20036;-81
2021/12/07 10:52:32;;;;;;;21.52;10.00;;;;;;;;;;5038308;28;20133;-83
2021/12/07 10:55:06;;;;;;;23.52;10.68;;;;;;;;;;5055721;28;20375;-81
2021/12/07 10:57:45;;;;;;;;;;;;;;;;;;5057166;28;20025;-82
2021/12/07 11:00:16;;;;;;;18.55;9.13;;;;;;;;;;5055380;28;19909;-81
2021/12/07 11:02:46;;;;;;;21.48;9.63;;;;;;;;;;5038094;28;20021;-81
2021/12/07 11:05:16;;;;;;;21.88;10.13;;;;;;;;;;5038040;28;20025;-81
2021/12/07 11:07:45;;;;;;;23.05;10.68;;;;;;;;;;5038244;28;20021;-81
2021/12/07 11:10:38;;;;;;;22.20;9.90;;;;;;;;;;5056186;28;20099;-80
2021/12/07 13:08:39;;;;;;;;;;;;;;;;;;;;;
2021/12/07 13:56:56;;;;;;;;;;;;;;;;;;;;;
2021/12/07 14:07:03;;;;;;;23.67;11.55;;;;;;;;;;5055675;28;20075;-80
2021/12/07 15:36:46;;;;;;;;;;;;;;;;;;;;;
2021/12/07 18:52:32;;;;;;;20.45;8.82;;;;;;;;;;3374131;22;20049;-82
2021/12/07 18:55:42;;;;;;;32.53;14.45;;;;;;;;;;5056569;28;20040;-82
2021/12/07 18:59:19;;;;;;;28.38;14.05;;;;;;;;;;5069013;28;20051;-80
2021/12/07 19:16:56;;;;;;;36.05;14.05;;;;;;;;;;4946059;29;20079;-83
2021/12/07 20:06:28;;;;;;;;;;;;;;;;;;;;;
2021/12/07 21:18:22;;;;;;;;;;;;;;;;;;;;;
2021/12/07 21:53:23;;;;;;;;;;;;;;;;;;;;;
2021/12/07 22:11:43;;;;;;;;;;;;;;;;;;;;;
2021/12/07 22:15:06;;;;;;;33.05;14.45;;;;;;;;;;5019788;28;20127;-82
2021/12/07 22:46:43;;;;;;;42.83;15.10;;;;;;;;;;4857830;29;20045;-80
2021/12/07 23:14:09;;;;;;;34.00;13.82;;;;;;;;;;4985089;28;20039;-80
